Avalon Airport
YMAV : now visible

Airfield :











YOU CAN JOIN US ON...

 
LOGIN :

Register | Disclaimer

   EN    FR    IT 

 









Legend :    VFR   Marginal VFR   IFR   Intensive IFR   Very Intensive IFR
Visi :
Ceiling :
>= 8 km
>= 3000ft
5 to 8 km
1000 to 3000 ft
1500m to 5 km
500 to 1000 ft
800 to 1500m
200 to 500 ft
< 800m
< 200 ft
Symbols :   Thunderstorms  Fog  Heavy snow  Heavy precipitations  Wind > 20 kt






- Airport Elevation : 35 ft
- IATA code : AVV


YMAV - Avalon

CURRENT METAR :
  • 172130Z AUTO 18009KT 9999 // OVC045 18/10 Q1016 RF00.0/000.0

EXPIRED METARs :
  • 172100Z AUTO 23007KT 9999 // OVC045 17/11 Q1016
  • 172030Z AUTO 20009KT 9999 // SCT038 BKN045 17/09 Q1016
  • 172000Z AUTO 18008KT 9999 // BKN036 OVC043 17/09 Q1016
  • 171930Z AUTO 18009KT 9999 // BKN032 OVC041 17/10 Q1015
  • 171900Z AUTO 17007KT 9999 // BKN030 OVC044 17/10 Q1015

TAF TAF YMAV
Valid from the 17 at 18:00 until the 18 at 18:00 UTC


171705Z 1718/1818 19012KT 9999 FEW025 BKN035
FM172300 17014KT 9999 SCT045
FM181000 17010KT 9999 SCT025 SCT035
FM181400 14012KT 9999 SCT025
YMMM FIR / Oceania



MET'MAP, your aeronautical weather chart ! - Copyright ORBIFLY December 2007 - Disclaimer

ORBIFLY MET'MAP TEAM :

Programming & Development : Alexandra Zaïnal
Concept & original design : Baudouin d'Aumeries
Assistance for programming : Marc-Olivier Méhu
Technical & hardware support : Manuel Goepfert

Contact : metmap@orbifly.com




SOURCES & CREDITS :

   NOAA       Earth
Advisory